Time;durP1;ratioP1;P1;durP2;ratioP2;P2;SDS_P1;SDS_P2;PMS_P1;PMS_P2;Temp;Humidity;BMP_temperature;BMP_pressure;BME280_temperature;BME280_humidity;BME280_pressure;Samples;Min_cycle;Max_cycle;Signal;HPM_P1;HPM_P2
2021/11/06 00:01:48;;;;;;;13.77;9.53;;;;;;;1.47;96.65;96685.63;5089119;28;20177;-80
2021/11/06 00:04:13;;;;;;;16.60;10.23;;;;;;;1.45;96.31;96691.72;5089100;28;20608;-80
2021/11/06 00:06:39;;;;;;;13.17;9.97;;;;;;;1.42;96.47;96687.56;5055845;28;20177;-80
2021/11/06 00:09:05;;;;;;;12.60;9.53;;;;;;;1.41;96.39;96684.19;5076191;28;20218;-80
2021/11/06 00:11:31;;;;;;;12.33;9.20;;;;;;;1.40;96.66;96692.72;5080528;28;20182;-80
2021/11/06 00:13:56;;;;;;;13.97;9.70;;;;;;;1.39;97.04;96691.06;5055259;28;20181;-80
2021/11/06 00:16:22;;;;;;;13.90;9.83;;;;;;;1.39;96.27;96688.50;5072053;28;20216;-80
2021/11/06 00:18:47;;;;;;;12.47;9.27;;;;;;;1.33;96.40;96685.41;5092407;28;20212;-79
2021/11/06 00:21:12;;;;;;;13.70;9.77;;;;;;;1.31;96.51;96689.72;5075239;28;20275;-80
2021/11/06 00:23:37;;;;;;;16.70;10.60;;;;;;;1.29;96.24;96694.91;5074765;28;20198;-80
2021/11/06 00:26:03;;;;;;;13.53;9.80;;;;;;;1.35;97.04;96697.22;5075646;28;20237;-80
2021/11/06 00:28:28;;;;;;;15.43;10.20;;;;;;;1.41;97.75;96698.69;5092345;28;20547;-79
2021/11/06 00:30:53;;;;;;;14.47;10.53;;;;;;;1.47;97.62;96693.31;5093749;28;20227;-79
2021/11/06 00:33:19;;;;;;;13.47;9.80;;;;;;;1.45;97.29;96684.06;5093323;28;20197;-80
2021/11/06 00:35:44;;;;;;;15.47;10.43;;;;;;;1.45;97.49;96687.44;5074167;28;20233;-79
2021/11/06 00:38:09;;;;;;;13.80;10.03;;;;;;;1.41;97.15;96691.88;5071719;28;20184;-79
2021/11/06 00:40:35;;;;;;;12.27;9.57;;;;;;;1.36;96.96;96685.25;5071566;28;20197;-79
2021/11/06 00:43:00;;;;;;;16.23;10.43;;;;;;;1.35;96.70;96684.44;5072474;28;20319;-79
2021/11/06 00:45:25;;;;;;;14.60;10.17;;;;;;;1.35;96.90;96681.88;5071107;28;20264;-79
2021/11/06 00:47:51;;;;;;;13.60;10.27;;;;;;;1.37;96.87;96690.31;5055418;28;20182;-80
2021/11/06 00:50:17;;;;;;;14.17;10.30;;;;;;;1.36;96.84;96691.22;5054844;28;20569;-79
2021/11/06 00:52:44;;;;;;;20.00;10.87;;;;;;;1.41;97.47;96693.56;5071508;28;20222;-81
2021/11/06 00:55:10;;;;;;;14.13;10.30;;;;;;;1.46;97.41;96678.84;5054111;28;20216;-79
2021/11/06 00:57:35;;;;;;;13.83;9.47;;;;;;;1.46;97.19;96680.59;5072074;28;20173;-80
2021/11/06 01:00:01;;;;;;;15.60;10.73;;;;;;;1.40;96.96;96682.50;5071544;28;20699;-78
2021/11/06 01:02:26;;;;;;;16.40;10.10;;;;;;;1.36;96.98;96691.22;5071648;28;20180;-80
2021/11/06 01:04:52;;;;;;;11.73;9.30;;;;;;;1.32;96.90;96688.81;5072437;28;20184;-79
2021/11/06 01:07:17;;;;;;;14.70;9.80;;;;;;;1.27;96.63;96689.03;5054983;28;20227;-79
2021/11/06 01:09:42;;;;;;;14.97;9.13;;;;;;;1.19;96.30;96688.53;5077437;28;20209;-79
2021/11/06 01:12:08;;;;;;;13.77;9.60;;;;;;;1.14;96.19;96695.53;5060627;28;20219;-79
2021/11/06 01:14:33;;;;;;;14.00;8.40;;;;;;;1.11;96.68;96695.66;5062221;28;20181;-80
2021/11/06 01:16:59;;;;;;;10.53;8.40;;;;;;;1.11;96.63;96698.22;5071476;28;20219;-79
2021/11/06 01:19:24;;;;;;;14.27;9.00;;;;;;;1.04;96.54;96689.13;5088239;28;20198;-80
2021/11/06 01:21:49;;;;;;;10.13;8.67;;;;;;;1.04;96.97;96689.13;5088160;28;20305;-80
2021/11/06 01:24:14;;;;;;;12.20;8.90;;;;;;;1.05;97.12;96685.69;5087664;28;20276;-79
2021/11/06 01:26:41;;;;;;;11.80;9.10;;;;;;;1.16;97.90;96683.53;5071747;28;20528;-80
2021/11/06 01:29:06;;;;;;;13.47;9.60;;;;;;;1.34;98.39;96692.19;5071345;28;20250;-80
2021/11/06 01:31:32;;;;;;;14.77;10.33;;;;;;;1.41;98.45;96686.75;5070606;28;20189;-80
2021/11/06 01:33:58;;;;;;;15.13;10.13;;;;;;;1.41;98.26;96688.44;5053933;28;20311;-79
2021/11/06 01:36:23;;;;;;;12.33;9.57;;;;;;;1.39;98.74;96687.69;5071073;28;20201;-79
2021/11/06 01:38:48;;;;;;;14.77;9.73;;;;;;;1.39;98.13;96680.00;5073766;28;20196;-80
2021/11/06 01:41:14;;;;;;;13.23;9.60;;;;;;;1.32;98.17;96674.31;5079266;28;20237;-81
2021/11/06 01:43:40;;;;;;;12.33;9.33;;;;;;;1.25;97.87;96678.03;5070395;28;20188;-79
2021/11/06 01:46:07;;;;;;;13.30;9.53;;;;;;;1.20;97.48;96677.38;5071288;28;20177;-80
2021/11/06 01:48:33;;;;;;;12.67;8.67;;;;;;;1.13;96.94;96675.97;5070681;28;20181;-79
2021/11/06 01:51:00;;;;;;;12.97;8.63;;;;;;;1.09;97.25;96672.72;5071318;28;20201;-80
2021/11/06 01:53:27;;;;;;;11.20;8.93;;;;;;;1.07;97.07;96671.13;5074812;28;20201;-79
2021/11/06 01:55:53;;;;;;;12.33;8.90;;;;;;;1.02;96.70;96670.47;5056165;28;20208;-79
2021/11/06 01:58:23;;;;;;;14.13;8.00;;;;;;;0.98;96.91;96668.94;5074718;28;20196;-80
2021/11/06 02:00:49;;;;;;;10.60;8.07;;;;;;;0.95;96.88;96663.94;5074514;28;20280;-79
2021/11/06 02:03:15;;;;;;;12.47;8.60;;;;;;;0.93;96.96;96663.16;5074442;28;20184;-80
2021/11/06 02:05:42;;;;;;;11.63;8.53;;;;;;;0.92;97.28;96675.13;5057693;28;20178;-80
2021/11/06 02:08:07;;;;;;;15.07;8.93;;;;;;;0.91;96.82;96668.34;5073973;28;20177;-80
2021/11/06 02:10:33;;;;;;;10.13;7.70;;;;;;;0.89;96.80;96662.47;5083918;28;20230;-80
2021/11/06 02:12:58;;;;;;;13.57;8.77;;;;;;;0.90;97.24;96668.41;5094308;28;20212;-79
2021/11/06 02:15:24;;;;;;;9.20;7.33;;;;;;;0.88;97.02;96667.63;5094025;28;20216;-79
2021/11/06 02:17:50;;;;;;;10.07;8.17;;;;;;;0.84;96.86;96670.31;5087179;28;20188;-79
2021/11/06 02:20:16;;;;;;;12.97;8.07;;;;;;;0.87;96.83;96673.63;5071198;28;20197;-79
2021/11/06 02:22:42;;;;;;;11.90;8.20;;;;;;;0.89;96.82;96664.19;5057521;28;20237;-79
2021/11/06 02:25:08;;;;;;;10.10;7.70;;;;;;;0.85;96.81;96658.34;5073476;28;20268;-79
2021/11/06 02:27:34;;;;;;;10.47;7.53;;;;;;;0.85;96.84;96659.19;5073789;28;20181;-80
2021/11/06 02:29:59;;;;;;;9.07;7.33;;;;;;;0.83;96.80;96662.69;5074134;28;20204;-79
2021/11/06 02:32:24;;;;;;;9.33;6.93;;;;;;;0.79;96.78;96664.53;5057373;28;20189;-79
2021/11/06 02:34:50;;;;;;;12.03;7.97;;;;;;;0.77;96.69;96666.31;5056405;28;20238;-79
2021/11/06 02:37:16;;;;;;;9.50;7.40;;;;;;;0.77;96.88;96668.06;5074177;28;20169;-79
2021/11/06 02:39:41;;;;;;;11.60;8.30;;;;;;;0.72;96.58;96662.31;5056430;28;20709;-81
2021/11/06 02:42:09;;;;;;;11.60;8.23;;;;;;;0.67;96.83;96662.47;5068781;28;20662;-79
2021/11/06 02:44:34;;;;;;;10.87;7.90;;;;;;;0.70;96.64;96659.78;5074199;28;20611;-80
2021/11/06 02:47:00;;;;;;;12.30;7.73;;;;;;;0.73;96.94;96672.47;5056795;28;20185;-79
2021/11/06 02:49:26;;;;;;;12.10;8.27;;;;;;;0.68;97.02;96673.53;5056518;28;20197;-79
2021/11/06 02:51:52;;;;;;;9.40;7.43;;;;;;;0.68;96.67;96670.97;5073318;28;20177;-80
2021/11/06 02:54:17;;;;;;;11.20;7.77;;;;;;;0.65;96.53;96663.44;5072575;28;20181;-79
2021/11/06 02:56:43;;;;;;;11.50;7.17;;;;;;;0.65;96.33;96671.94;5056656;28;20212;-79
2021/11/06 02:59:08;;;;;;;10.30;7.57;;;;;;;0.61;96.54;96669.53;5073488;28;20225;-79
2021/11/06 03:01:34;;;;;;;12.13;7.57;;;;;;;0.60;96.87;96667.88;5056116;28;20193;-81
2021/11/06 03:03:59;;;;;;;11.17;7.20;;;;;;;0.58;96.81;96675.59;5056252;28;20184;-79
2021/11/06 03:06:25;;;;;;;10.97;8.03;;;;;;;0.59;96.92;96671.31;5056203;28;20200;-79
2021/11/06 03:08:50;;;;;;;10.40;7.03;;;;;;;0.60;96.87;96673.00;5072595;28;20181;-79
2021/11/06 03:11:15;;;;;;;9.20;6.87;;;;;;;0.61;96.78;96679.75;5057532;28;20550;-79
2021/11/06 03:13:43;;;;;;;10.73;7.30;;;;;;;0.57;96.53;96679.06;5094287;28;20181;-79
2021/11/06 03:16:09;;;;;;;9.20;6.83;;;;;;;0.54;96.35;96674.06;5076240;28;20758;-80
2021/11/06 03:18:34;;;;;;;8.43;6.70;;;;;;;0.53;96.35;96680.91;5093433;28;20548;-79
2021/11/06 03:21:00;;;;;;;9.20;6.93;;;;;;;0.50;96.35;96673.34;5093080;28;20206;-79
2021/11/06 03:23:27;;;;;;;8.93;7.50;;;;;;;0.49;97.00;96676.78;5076446;28;20400;-79
2021/11/06 03:25:54;;;;;;;10.33;6.87;;;;;;;0.50;96.78;96667.41;5075811;28;20192;-79
2021/11/06 03:28:19;;;;;;;10.57;6.53;;;;;;;0.50;96.87;96675.06;5093179;28;20225;-80
2021/11/06 03:30:44;;;;;;;9.13;6.60;;;;;;;0.50;96.84;96682.75;5076613;28;20287;-80
2021/11/06 03:33:10;;;;;;;9.73;6.90;;;;;;;0.48;96.50;96681.97;5093066;28;20191;-79
2021/11/06 03:35:35;;;;;;;10.03;6.50;;;;;;;0.45;96.82;96688.03;5092377;28;20212;-79
2021/11/06 03:38:01;;;;;;;8.17;6.60;;;;;;;0.45;96.40;96685.50;5076343;28;20271;-80
2021/11/06 03:40:27;;;;;;;8.50;6.13;;;;;;;0.42;96.24;96680.47;5090162;28;20211;-80
2021/11/06 03:42:52;;;;;;;9.37;6.47;;;;;;;0.44;96.43;96688.06;5066728;28;20173;-80
2021/11/06 03:45:18;;;;;;;9.47;6.50;;;;;;;0.40;96.34;96682.25;5072264;28;20259;-80
2021/11/06 03:47:43;;;;;;;8.57;6.43;;;;;;;0.39;96.69;96684.88;5072942;28;20207;-80
2021/11/06 03:50:09;;;;;;;8.40;6.00;;;;;;;0.37;96.42;96684.13;5072600;28;20201;-79
2021/11/06 03:52:35;;;;;;;8.50;6.27;;;;;;;0.35;96.26;96684.16;5055897;28;20270;-80
2021/11/06 03:55:01;;;;;;;7.60;5.87;;;;;;;0.34;96.01;96686.75;5072421;28;20233;-79
2021/11/06 03:57:26;;;;;;;8.73;6.13;;;;;;;0.33;96.28;96683.38;5072321;28;20240;-79
2021/11/06 03:59:51;;;;;;;6.97;5.83;;;;;;;0.32;96.33;96684.28;5055870;28;20247;-79
2021/11/06 04:02:16;;;;;;;9.20;6.60;;;;;;;0.32;96.87;96686.00;5055553;28;20181;-80
2021/11/06 04:04:42;;;;;;;11.20;6.57;;;;;;;0.32;96.41;96691.09;5054913;28;20177;-80
2021/11/06 04:07:07;;;;;;;8.83;6.40;;;;;;;0.30;96.41;96698.00;5072475;28;20518;-80
2021/11/06 04:09:32;;;;;;;10.10;6.13;;;;;;;0.26;96.56;96695.53;5076950;28;20212;-80
2021/11/06 04:11:58;;;;;;;8.43;6.37;;;;;;;0.24;96.33;96693.94;5069401;28;20555;-80
2021/11/06 04:14:23;;;;;;;7.40;5.90;;;;;;;0.25;96.50;96696.44;5070533;28;20190;-79
2021/11/06 04:16:48;;;;;;;7.77;6.50;;;;;;;0.26;96.26;96698.09;5083788;28;20197;-79
2021/11/06 04:19:13;;;;;;;9.10;6.60;;;;;;;0.24;96.16;96696.50;5092165;28;20212;-80
2021/11/06 04:21:40;;;;;;;9.97;6.57;;;;;;;0.25;96.84;96699.00;5075758;28;20195;-79
2021/11/06 04:24:05;;;;;;;9.20;6.53;;;;;;;0.26;96.57;96698.09;5074695;28;20815;-80
2021/11/06 04:26:31;;;;;;;8.07;6.47;;;;;;;0.30;96.57;96700.56;5075526;28;20267;-80
2021/11/06 04:28:56;;;;;;;9.27;6.00;;;;;;;0.30;96.45;96710.78;5076222;28;20185;-80
2021/11/06 04:31:22;;;;;;;9.03;6.20;;;;;;;0.30;96.35;96706.50;5076550;28;20559;-80
2021/11/06 04:33:47;;;;;;;8.40;5.77;;;;;;;0.28;96.21;96703.19;5091746;28;20184;-80
2021/11/06 04:36:12;;;;;;;9.17;6.47;;;;;;;0.24;96.36;96699.06;5075201;28;20204;-79
2021/11/06 04:38:38;;;;;;;10.60;6.77;;;;;;;0.23;96.39;96707.59;5092173;28;20180;-79
2021/11/06 04:41:03;;;;;;;11.47;6.93;;;;;;;0.24;96.71;96706.72;5061767;28;20217;-79
2021/11/06 04:43:28;;;;;;;10.17;7.10;;;;;;;0.22;96.67;96704.22;5071290;28;20189;-81
2021/11/06 04:45:54;;;;;;;8.97;6.60;;;;;;;0.20;96.61;96711.13;5054477;28;20207;-79
2021/11/06 04:48:19;;;;;;;9.70;7.23;;;;;;;0.21;96.66;96707.66;5071523;28;20681;-80
2021/11/06 04:50:45;;;;;;;8.63;6.80;;;;;;;0.21;96.83;96714.50;5054632;28;20592;-80
2021/11/06 04:53:10;;;;;;;9.73;6.87;;;;;;;0.19;96.48;96706.91;5055211;28;20184;-80
2021/11/06 04:55:35;;;;;;;8.77;6.30;;;;;;;0.19;96.79;96703.50;5070469;28;20616;-80
2021/11/06 04:58:01;;;;;;;12.93;7.87;;;;;;;0.19;96.87;96709.47;5054453;28;20268;-80
2021/11/06 05:00:26;;;;;;;11.80;7.00;;;;;;;0.20;96.65;96711.13;5054537;28;20204;-79
2021/11/06 05:02:51;;;;;;;10.17;7.27;;;;;;;0.19;96.63;96717.13;5071577;28;20177;-80
2021/11/06 05:05:17;;;;;;;10.03;7.13;;;;;;;0.18;96.73;96718.00;5054141;28;20652;-80
2021/11/06 05:07:43;;;;;;;11.10;7.90;;;;;;;0.18;96.50;96715.47;5071372;28;20181;-81
2021/11/06 05:10:09;;;;;;;11.40;7.60;;;;;;;0.19;96.89;96706.91;5054052;28;20212;-79
2021/11/06 05:12:35;;;;;;;9.67;7.23;;;;;;;0.22;97.12;96714.44;5081124;28;20188;-79
2021/11/06 05:15:02;;;;;;;12.23;8.20;;;;;;;0.24;96.76;96712.66;5072028;28;20173;-80
2021/11/06 05:17:27;;;;;;;11.43;7.60;;;;;;;0.25;96.48;96716.03;5072658;28;20169;-80
2021/11/06 05:19:53;;;;;;;11.43;8.57;;;;;;;0.26;97.26;96715.97;5071901;28;20216;-79
2021/11/06 05:22:18;;;;;;;10.20;7.70;;;;;;;0.28;96.92;96721.88;5055775;28;20181;-81
2021/11/06 05:24:43;;;;;;;15.43;9.67;;;;;;;0.31;97.01;96717.53;5071111;28;20211;-80
2021/11/06 05:27:09;;;;;;;11.87;8.47;;;;;;;0.40;97.17;96712.94;5055633;28;20176;-79
2021/11/06 05:29:34;;;;;;;11.13;8.40;;;;;;;0.42;97.19;96712.88;5055137;28;20197;-81
2021/11/06 05:31:59;;;;;;;11.87;8.63;;;;;;;0.46;97.29;96706.75;5072076;28;20266;-79
2021/11/06 05:34:25;;;;;;;13.50;9.13;;;;;;;0.50;97.58;96704.00;5071006;28;20215;-80
2021/11/06 05:36:50;;;;;;;10.80;7.87;;;;;;;0.56;97.56;96705.50;5072388;28;20208;-80
2021/11/06 05:39:16;;;;;;;13.33;8.63;;;;;;;0.53;97.08;96703.91;5055350;28;20239;-81
2021/11/06 05:41:41;;;;;;;11.77;8.70;;;;;;;0.50;97.19;96704.00;5062165;28;20267;-79
2021/11/06 05:44:06;;;;;;;11.67;7.87;;;;;;;0.49;97.49;96709.19;5071654;28;20201;-81
2021/11/06 05:46:32;;;;;;;10.53;7.80;;;;;;;0.46;97.65;96701.66;5073843;28;20169;-80
2021/11/06 05:48:57;;;;;;;11.67;8.13;;;;;;;0.39;97.57;96708.72;5073390;28;20579;-80
2021/11/06 05:51:24;;;;;;;12.13;7.87;;;;;;;0.37;97.24;96702.81;5071192;28;20586;-80
2021/11/06 05:53:49;;;;;;;13.27;8.37;;;;;;;0.34;97.20;96707.19;5071198;28;20181;-78
2021/11/06 05:56:15;;;;;;;10.57;7.87;;;;;;;0.32;97.60;96709.81;5071962;28;20687;-79
2021/11/06 05:58:40;;;;;;;11.30;7.83;;;;;;;0.31;97.55;96709.88;5072832;28;20184;-80
2021/11/06 06:01:06;;;;;;;13.73;8.43;;;;;;;0.27;97.18;96704.91;5087919;28;20254;-81
2021/11/06 06:03:31;;;;;;;12.40;8.83;;;;;;;0.24;97.33;96711.81;5070790;28;20200;-82
2021/11/06 06:05:56;;;;;;;12.73;9.20;;;;;;;0.22;97.12;96714.44;5070744;28;20185;-79
2021/11/06 06:08:23;;;;;;;15.23;8.67;;;;;;;0.21;97.30;96710.22;5072541;28;20257;-79
2021/11/06 06:10:48;;;;;;;11.63;10.00;;;;;;;0.18;97.76;96712.91;5078466;28;20254;-78
2021/11/06 06:13:14;;;;;;;29.93;19.53;;;;;;;0.18;97.27;96712.91;5088173;28;20180;-79
2021/11/06 06:15:39;;;;;;;31.50;21.07;;;;;;;0.16;97.60;96714.66;5090242;28;20758;-79
2021/11/06 06:18:04;;;;;;;38.80;27.27;;;;;;;0.15;97.29;96717.28;5074079;28;20238;-80
2021/11/06 06:20:30;;;;;;;35.93;23.87;;;;;;;0.16;97.45;96714.66;5073714;28;20579;-80
2021/11/06 06:22:56;;;;;;;25.87;19.00;;;;;;;0.18;97.41;96722.28;5092465;28;20204;-79
2021/11/06 06:25:23;;;;;;;21.40;15.27;;;;;;;0.17;97.41;96723.16;5090225;28;20648;-79
2021/11/06 06:27:49;;;;;;;17.77;12.13;;;;;;;0.22;97.29;96722.09;5091654;28;20168;-80
2021/11/06 06:30:15;;;;;;;13.47;10.07;;;;;;;0.30;97.50;96733.78;5090731;28;20210;-79
2021/11/06 06:32:41;;;;;;;16.03;10.50;;;;;;;0.35;97.47;96737.81;5073804;28;20184;-78
2021/11/06 06:35:08;;;;;;;14.17;9.97;;;;;;;0.43;97.06;96737.53;5073400;28;20601;-80
2021/11/06 06:37:33;;;;;;;14.60;10.67;;;;;;;0.48;97.28;96745.88;5094402;28;20172;-79
2021/11/06 06:39:59;;;;;;;13.53;9.70;;;;;;;0.57;97.27;96740.41;5092751;28;20206;-79
2021/11/06 06:42:24;;;;;;;13.33;9.30;;;;;;;0.62;97.29;96740.22;5083506;28;20521;-78
2021/11/06 06:44:51;;;;;;;12.20;8.97;;;;;;;0.64;97.16;96741.84;5072988;28;20181;-80
2021/11/06 06:47:16;;;;;;;12.47;8.83;;;;;;;0.67;97.24;96749.41;5074465;28;20212;-80
2021/11/06 06:49:42;;;;;;;13.43;9.47;;;;;;;0.74;97.27;96745.72;5056996;28;20247;-80
2021/11/06 06:52:07;;;;;;;13.57;9.53;;;;;;;0.79;97.26;96748.09;5057180;28;20222;-79
2021/11/06 06:54:33;;;;;;;13.93;9.90;;;;;;;0.89;97.43;96759.66;5073221;28;20169;-79
2021/11/06 06:56:58;;;;;;;14.27;10.87;;;;;;;0.96;97.02;96742.31;5056921;28;20205;-79
2021/11/06 06:59:24;;;;;;;12.60;10.33;;;;;;;1.01;96.80;96748.09;5074726;28;20200;-79
2021/11/06 07:01:49;;;;;;;12.47;9.03;;;;;;;1.04;97.06;96746.25;5073716;28;20246;-79
2021/11/06 07:04:15;;;;;;;12.37;9.37;;;;;;;1.13;97.04;96755.28;5063336;28;20185;-80
2021/11/06 07:06:40;;;;;;;13.33;9.00;;;;;;;1.24;96.92;96749.75;5074221;28;20169;-80
2021/11/06 07:09:06;;;;;;;14.53;8.73;;;;;;;1.33;96.69;96754.50;5057157;28;20197;-80
2021/11/06 07:11:31;;;;;;;14.87;9.73;;;;;;;1.39;96.16;96764.47;5074242;28;20242;-80
2021/11/06 07:13:56;;;;;;;14.37;9.23;;;;;;;1.45;96.26;96760.84;5057216;28;20188;-80
2021/11/06 07:16:23;;;;;;;14.83;9.17;;;;;;;1.53;96.29;96769.88;5073456;28;20244;-81
2021/11/06 07:18:48;;;;;;;16.67;10.03;;;;;;;1.54;96.20;96770.69;5072815;28;20181;-79
2021/11/06 07:21:14;;;;;;;15.83;9.63;;;;;;;1.61;96.00;96767.00;5063438;28;20250;-79
2021/11/06 07:23:39;;;;;;;14.97;10.60;;;;;;;1.67;96.10;96765.00;5088530;28;20192;-80
2021/11/06 07:26:04;;;;;;;16.50;10.27;;;;;;;1.75;95.97;96757.00;5074562;28;20250;-79
2021/11/06 07:28:31;;;;;;;15.33;10.10;;;;;;;1.81;95.83;96767.00;5075696;28;20204;-80
2021/11/06 07:30:58;;;;;;;17.43;10.77;;;;;;;1.84;95.63;96766.03;5056433;28;20706;-81
2021/11/06 07:33:23;;;;;;;14.17;9.37;;;;;;;1.89;96.23;96769.25;5057738;28;20656;-80
2021/11/06 07:35:48;;;;;;;14.93;10.30;;;;;;;1.93;96.04;96761.34;5084900;28;20204;-79
2021/11/06 07:38:14;;;;;;;15.80;9.70;;;;;;;1.97;96.42;96760.34;5070271;28;20177;-80
2021/11/06 07:40:40;;;;;;;12.73;9.83;;;;;;;2.01;96.01;96765.31;5073375;28;20251;-80
2021/11/06 07:43:05;;;;;;;13.80;9.83;;;;;;;2.07;96.01;96765.06;5071405;28;20174;-80
2021/11/06 07:45:32;;;;;;;13.80;10.17;;;;;;;2.17;96.15;96772.28;5071990;28;20234;-79
2021/11/06 07:47:58;;;;;;;17.33;11.37;;;;;;;2.25;96.65;96775.34;5073441;28;20177;-80
2021/11/06 07:50:23;;;;;;;17.23;10.20;;;;;;;2.38;96.51;96782.47;5074364;28;20221;-79
2021/11/06 07:52:48;;;;;;;16.13;10.93;;;;;;;2.41;96.56;96780.63;5055946;28;20181;-80
2021/11/06 07:55:14;;;;;;;15.57;10.10;;;;;;;2.53;96.58;96786.94;5072969;28;20184;-80
2021/11/06 07:57:39;;;;;;;17.17;11.03;;;;;;;2.61;96.45;96786.59;5073392;28;20200;-81
2021/11/06 08:00:06;;;;;;;19.27;12.00;;;;;;;2.71;96.35;96792.97;5074110;28;20216;-80
2021/11/06 08:02:32;;;;;;;17.73;11.00;;;;;;;2.79;96.01;96798.59;5089287;28;20196;-80
2021/11/06 08:04:58;;;;;;;15.43;10.80;;;;;;;2.88;96.13;96790.47;5081392;28;20179;-80
2021/11/06 08:07:23;;;;;;;14.17;10.50;;;;;;;2.89;95.85;96791.31;5073211;28;20650;-80
2021/11/06 08:09:48;;;;;;;14.83;9.80;;;;;;;2.97;95.69;96792.63;5074528;28;20242;-80
2021/11/06 08:12:14;;;;;;;15.63;10.50;;;;;;;3.03;95.50;96791.50;5056246;28;20660;-80
2021/11/06 08:14:39;;;;;;;15.40;10.73;;;;;;;3.10;95.86;96792.91;5075763;28;20180;-80
2021/11/06 08:17:04;;;;;;;15.83;11.73;;;;;;;3.19;95.36;96796.78;5068409;28;20232;-80
2021/11/06 08:19:30;;;;;;;16.23;10.70;;;;;;;3.28;95.66;96793.75;5073917;28;20185;-80
2021/11/06 08:21:56;;;;;;;13.60;10.00;;;;;;;3.40;95.63;96791.44;5054536;28;20521;-79
2021/11/06 08:24:22;;;;;;;14.87;10.20;;;;;;;3.51;95.32;96790.91;5070700;28;20593;-80
2021/11/06 08:26:48;;;;;;;15.27;10.50;;;;;;;3.68;94.86;96790.91;5071260;28;20262;-81
2021/11/06 08:29:14;;;;;;;14.77;11.27;;;;;;;3.80;94.83;96792.06;5055038;28;20254;-80
2021/11/06 08:31:40;;;;;;;17.97;11.57;;;;;;;3.88;94.42;96791.66;5071432;28;20178;-80
2021/11/06 08:34:05;;;;;;;12.03;9.37;;;;;;;3.98;92.96;96795.47;5082956;28;20182;-83
2021/11/06 08:36:31;;;;;;;12.90;9.40;;;;;;;4.10;92.49;96799.97;5060152;28;20788;-82
2021/11/06 08:38:56;;;;;;;15.00;9.73;;;;;;;4.18;91.75;96805.56;5081044;28;20642;-83
2021/11/06 08:41:21;;;;;;;11.87;8.50;;;;;;;4.32;91.81;96804.03;5080422;28;20714;-83
2021/11/06 08:43:47;;;;;;;15.67;9.83;;;;;;;4.45;91.39;96812.78;5070325;28;20181;-80
2021/11/06 08:46:12;;;;;;;14.50;8.77;;;;;;;4.51;91.27;96807.31;5071219;28;20173;-80
2021/11/06 08:48:37;;;;;;;14.30;8.90;;;;;;;4.59;90.68;96806.91;5054205;28;20177;-80
2021/11/06 08:51:03;;;;;;;11.67;7.87;;;;;;;4.63;89.75;96811.81;5054142;28;20196;-80
2021/11/06 08:53:29;;;;;;;10.73;7.97;;;;;;;4.69;89.70;96811.50;5072449;28;20591;-80
2021/11/06 08:55:54;;;;;;;10.00;6.87;;;;;;;4.78;88.96;96816.16;5057690;28;20280;-80
2021/11/06 08:58:20;;;;;;;9.93;6.80;;;;;;;4.69;87.76;96816.66;5076037;28;20185;-79
2021/11/06 09:00:46;;;;;;;6.47;4.50;;;;;;;4.77;87.13;96813.66;5074032;28;20643;-79
2021/11/06 09:03:15;;;;;;;6.73;5.13;;;;;;;4.79;87.11;96812.69;5074922;28;20213;-82
2021/11/06 09:05:41;;;;;;;6.90;4.90;;;;;;;4.88;86.01;96819.09;5065816;28;20234;-83
2021/11/06 09:08:07;;;;;;;8.30;4.90;;;;;;;4.95;84.60;96814.44;5057516;28;20644;-85
2021/11/06 09:10:32;;;;;;;7.73;5.17;;;;;;;5.06;84.58;96806.97;5057864;28;20204;-81
2021/11/06 09:12:58;;;;;;;5.90;4.73;;;;;;;5.20;83.80;96808.78;5060249;28;20538;-81
2021/11/06 09:15:23;;;;;;;8.03;4.77;;;;;;;5.39;83.63;96810.28;5078139;28;20189;-79
2021/11/06 09:17:50;;;;;;;8.93;4.93;;;;;;;5.42;82.32;96808.44;5058621;28;20644;-80
2021/11/06 09:20:16;;;;;;;7.77;5.87;;;;;;;5.46;83.16;96807.34;5073665;28;20185;-79
2021/11/06 09:22:41;;;;;;;7.10;5.50;;;;;;;5.59;82.66;96811.72;5058084;28;20306;-80
2021/11/06 09:25:08;;;;;;;8.27;5.53;;;;;;;5.68;82.30;96811.22;5074290;28;20193;-80
2021/11/06 09:27:34;;;;;;;6.77;5.53;;;;;;;5.74;81.75;96814.34;5076794;28;20173;-80
2021/11/06 09:30:00;;;;;;;7.07;4.97;;;;;;;5.87;81.47;96810.16;5076343;28;20662;-79
2021/11/06 09:32:25;;;;;;;7.90;4.87;;;;;;;5.97;81.17;96813.91;5081148;28;20199;-80
2021/11/06 09:34:50;;;;;;;5.60;4.50;;;;;;;5.93;80.50;96815.00;5084407;28;20180;-79
2021/11/06 09:37:16;;;;;;;5.73;4.80;;;;;;;5.99;80.31;96813.81;5085938;28;20200;-80
2021/11/06 09:39:41;;;;;;;6.90;4.80;;;;;;;6.10;80.55;96807.13;5077310;28;20566;-79
2021/11/06 09:42:07;;;;;;;6.50;4.83;;;;;;;6.12;79.81;96815.59;5070829;28;20304;-79
2021/11/06 09:44:36;;;;;;;7.27;5.20;;;;;;;6.17;80.72;96817.88;5075747;28;20168;-80
2021/11/06 09:47:08;;;;;;;7.60;5.30;;;;;;;6.22;80.00;96818.47;5094634;28;20164;-80
2021/11/06 09:49:34;;;;;;;6.43;5.10;;;;;;;6.23;79.90;96814.97;5093217;28;20252;-80
2021/11/06 09:52:00;;;;;;;7.10;4.50;;;;;;;6.24;78.81;96816.63;5074398;28;20203;-80
2021/11/06 09:54:26;;;;;;;5.57;4.60;;;;;;;6.37;78.95;96820.16;5092509;28;20176;-84
2021/11/06 09:56:51;;;;;;;7.50;5.23;;;;;;;6.38;78.26;96815.81;5075453;28;20204;-83
2021/11/06 09:59:16;;;;;;;6.50;4.80;;;;;;;6.44;78.31;96816.25;5077321;28;20691;-82
2021/11/06 10:01:42;;;;;;;6.47;4.97;;;;;;;6.37;78.28;96814.16;5075474;28;20172;-83
2021/11/06 10:04:08;;;;;;;6.30;5.23;;;;;;;6.45;78.21;96823.09;5071040;28;20215;-81
2021/11/06 10:06:35;;;;;;;9.07;5.07;;;;;;;6.44;78.89;96816.25;5058183;28;20172;-82
2021/11/06 10:09:00;;;;;;;9.03;5.47;;;;;;;6.67;78.52;96819.22;5075050;28;20612;-79
2021/11/06 10:11:30;;;;;;;5.20;4.27;;;;;;;6.64;76.21;96822.00;5095077;28;20173;-79
2021/11/06 10:14:03;;;;;;;5.17;4.47;;;;;;;6.54;76.08;96816.56;5078016;28;20264;-80
2021/11/06 10:16:40;;;;;;;5.80;4.87;;;;;;;6.52;76.36;96818.38;5096670;28;20196;-80
2021/11/06 10:19:06;;;;;;;6.60;4.70;;;;;;;6.53;75.90;96815.72;5095315;28;20192;-79
2021/11/06 10:21:32;;;;;;;7.83;4.70;;;;;;;6.55;76.04;96812.22;5096598;28;20164;-79
2021/11/06 10:23:58;;;;;;;6.23;4.73;;;;;;;6.63;75.89;96808.28;5077844;28;20199;-79
2021/11/06 10:26:23;;;;;;;5.73;4.43;;;;;;;6.75;75.74;96810.09;5078494;28;20251;-81
2021/11/06 10:29:01;;;;;;;5.43;3.97;;;;;;;6.82;74.38;96811.38;5078056;28;20275;-80
2021/11/06 10:31:27;;;;;;;6.70;4.50;;;;;;;6.88;74.52;96810.16;5094912;28;20180;-79
2021/11/06 10:33:52;;;;;;;8.00;4.53;;;;;;;6.94;73.82;96811.56;5077456;28;20180;-79
2021/11/06 10:36:25;;;;;;;4.53;4.00;;;;;;;6.89;73.23;96811.84;5083085;28;20212;-79
2021/11/06 10:39:07;;;;;;;8.40;4.90;;;;;;;6.87;73.94;96813.66;5057505;28;20181;-79
2021/11/06 10:41:35;;;;;;;6.53;4.40;;;;;;;6.88;73.64;96804.16;5084119;28;20172;-79
2021/11/06 10:44:01;;;;;;;5.53;4.60;;;;;;;6.88;73.65;96805.00;5082275;28;20651;-79
2021/11/06 10:46:28;;;;;;;6.07;4.20;;;;;;;6.93;72.80;96810.72;5075767;28;20181;-80
2021/11/06 10:48:55;;;;;;;5.10;4.17;;;;;;;6.88;72.70;96802.41;5091600;28;20588;-79
2021/11/06 10:51:21;;;;;;;4.53;4.07;;;;;;;6.88;72.97;96809.34;5092889;28;20173;-80
2021/11/06 10:53:46;;;;;;;10.40;4.63;;;;;;;6.84;73.95;96797.56;5093656;28;20246;-78
2021/11/06 10:56:14;;;;;;;6.20;4.73;;;;;;;6.97;73.49;96801.03;5095108;28;20200;-78
2021/11/06 10:58:45;;;;;;;6.70;4.60;;;;;;;7.05;72.72;96794.47;5094604;28;20180;-77
2021/11/06 11:01:22;;;;;;;6.37;4.47;;;;;;;7.16;73.70;96792.97;5092845;28;20168;-77
2021/11/06 11:03:49;;;;;;;6.43;4.47;;;;;;;7.23;71.78;96789.88;5092113;28;20650;-77
2021/11/06 11:06:21;;;;;;;6.70;5.07;;;;;;;7.10;72.40;96782.09;5082310;28;20216;-77
2021/11/06 11:08:52;;;;;;;6.70;4.83;;;;;;;7.15;72.92;96778.38;5071822;28;20242;-77
2021/11/06 11:11:20;;;;;;;8.37;4.70;;;;;;;7.27;72.49;96769.88;5072247;28;20705;-77
2021/11/06 11:13:48;;;;;;;5.40;4.43;;;;;;;7.20;71.78;96763.44;5070514;28;20177;-76
2021/11/06 11:16:17;;;;;;;5.40;4.30;;;;;;;7.19;71.51;96761.78;5073113;28;20194;-77
2021/11/06 11:18:45;;;;;;;5.77;4.53;;;;;;;7.21;71.36;96762.50;5072384;28;20173;-76
2021/11/06 11:21:26;;;;;;;5.47;4.27;;;;;;;7.26;70.88;96770.81;5054972;28;20173;-77
2021/11/06 11:23:59;;;;;;;6.60;5.13;;;;;;;7.35;71.12;96772.81;5052975;28;20544;-76
2021/11/06 11:26:45;;;;;;;4.87;4.37;;;;;;;7.54;69.92;96762.94;5086078;28;20176;-76
2021/11/06 11:29:14;;;;;;;4.50;3.90;;;;;;;7.48;67.54;96765.09;5092427;28;20330;-78